createdAt,value
2018-07-07T00:00:00.185Z,4.08
2018-07-07T00:02:28.216Z,3.83
2018-07-07T00:04:56.280Z,4.25
2018-07-07T00:07:24.324Z,4.10
2018-07-07T00:09:52.337Z,4.42
2018-07-07T00:12:20.361Z,4.78
2018-07-07T00:14:48.408Z,4.50
2018-07-07T00:17:16.537Z,4.00
2018-07-07T00:19:44.573Z,4.35
2018-07-07T00:22:12.630Z,4.65
2018-07-07T00:24:40.704Z,4.42
2018-07-07T00:27:08.558Z,4.53
2018-07-07T00:29:36.561Z,4.00
2018-07-07T00:32:04.684Z,4.30
2018-07-07T00:34:32.733Z,4.12
2018-07-07T00:37:00.776Z,3.70
2018-07-07T00:39:28.798Z,4.12
2018-07-07T00:41:56.812Z,4.17
2018-07-07T00:44:24.855Z,3.80
2018-07-07T00:46:52.908Z,3.75
2018-07-07T00:49:20.916Z,4.75
2018-07-07T00:51:48.956Z,4.17
2018-07-07T00:54:16.992Z,4.00
2018-07-07T00:56:45.014Z,4.45
2018-07-07T00:59:13.044Z,4.20
2018-07-07T01:01:41.088Z,4.03
2018-07-07T01:04:09.128Z,4.75
2018-07-07T01:06:37.160Z,4.10
2018-07-07T01:09:05.432Z,4.12
2018-07-07T01:11:33.444Z,4.60
2018-07-07T01:14:01.504Z,4.75
2018-07-07T01:16:29.547Z,4.20
2018-07-07T01:18:57.552Z,3.60
2018-07-07T01:21:25.588Z,4.40
2018-07-07T01:23:53.604Z,4.40
2018-07-07T01:26:21.620Z,4.53
2018-07-07T01:28:49.637Z,4.50
2018-07-07T01:31:17.693Z,3.80
2018-07-07T01:33:45.504Z,3.90
2018-07-07T01:36:13.523Z,4.73
2018-07-07T01:38:41.556Z,4.20
2018-07-07T01:41:09.600Z,4.30
2018-07-07T01:43:37.631Z,4.80
2018-07-07T01:46:05.480Z,4.03
2018-07-07T01:48:33.523Z,4.17
2018-07-07T01:51:01.516Z,4.42
2018-07-07T01:53:29.536Z,4.40
2018-07-07T01:55:57.560Z,4.08
2018-07-07T01:58:25.592Z,5.20
2018-07-07T02:00:53.621Z,4.90
2018-07-07T02:03:21.450Z,4.40
2018-07-07T02:05:49.459Z,4.97
2018-07-07T02:08:17.520Z,4.20
2018-07-07T02:10:45.329Z,4.25
2018-07-07T02:13:13.344Z,4.55
2018-07-07T02:15:41.385Z,4.72
2018-07-07T02:18:09.409Z,4.80
2018-07-07T02:20:37.452Z,4.90
2018-07-07T02:23:05.716Z,5.15
2018-07-07T02:25:33.737Z,5.03
2018-07-07T02:28:01.771Z,5.05
2018-07-07T02:30:29.812Z,5.10
2018-07-07T02:32:57.830Z,5.10
2018-07-07T02:35:25.858Z,5.25
2018-07-07T02:37:53.876Z,5.30
2018-07-07T02:40:21.926Z,5.35
2018-07-07T02:42:49.972Z,5.80
2018-07-07T02:45:18.023Z,5.80
2018-07-07T02:47:46.056Z,5.30
2018-07-07T02:50:14.072Z,6.00
2018-07-07T02:52:42.102Z,5.75
2018-07-07T02:55:10.146Z,5.62
2018-07-07T02:57:38.196Z,6.50
2018-07-07T03:00:06.208Z,6.42
2018-07-07T03:02:34.368Z,6.45
2018-07-07T03:05:02.393Z,6.37
2018-07-07T03:07:30.418Z,6.60
2018-07-07T03:09:58.441Z,6.40
2018-07-07T03:12:26.487Z,6.60
2018-07-07T03:14:54.502Z,6.83
2018-07-07T03:17:22.530Z,7.00
2018-07-07T03:19:50.549Z,6.72
2018-07-07T03:22:18.388Z,6.83
2018-07-07T03:24:46.399Z,6.40
2018-07-07T03:27:14.449Z,6.22
2018-07-07T03:29:42.292Z,6.30
2018-07-07T03:32:10.321Z,6.40
2018-07-07T03:34:38.359Z,6.00
2018-07-07T03:37:06.410Z,5.40
2018-07-07T03:39:34.422Z,5.70
2018-07-07T03:42:02.441Z,5.05
2018-07-07T03:44:30.463Z,5.15
2018-07-07T03:46:58.503Z,5.10
2018-07-07T03:49:26.606Z,5.03
2018-07-07T03:51:54.541Z,4.50
2018-07-07T03:54:22.576Z,4.80
2018-07-07T03:56:50.606Z,4.65
2018-07-07T03:59:18.607Z,4.30
2018-07-07T04:01:46.686Z,4.67
2018-07-07T04:04:14.679Z,4.62
2018-07-07T04:06:42.716Z,4.40
2018-07-07T04:09:10.760Z,3.80
2018-07-07T04:11:38.772Z,3.95
2018-07-07T04:14:06.796Z,3.60
2018-07-07T04:16:34.816Z,3.98
2018-07-07T04:19:02.861Z,3.22
2018-07-07T04:21:30.891Z,3.50
2018-07-07T04:23:58.909Z,4.17
2018-07-07T04:26:26.942Z,3.50
2018-07-07T04:28:54.956Z,3.80
2018-07-07T04:31:22.972Z,3.90
2018-07-07T04:33:50.988Z,3.47
2018-07-07T04:36:19.016Z,3.70
2018-07-07T04:38:47.038Z,3.20
2018-07-07T04:41:15.116Z,3.40
2018-07-07T04:43:43.152Z,3.40
2018-07-07T04:46:11.177Z,3.77
2018-07-07T04:48:39.047Z,3.50
2018-07-07T04:51:07.092Z,3.17
2018-07-07T04:53:35.099Z,3.35
2018-07-07T04:56:03.149Z,3.50
2018-07-07T04:58:30.964Z,3.57
2018-07-07T05:00:58.976Z,3.63
2018-07-07T05:03:26.825Z,3.50
2018-07-07T05:05:54.821Z,3.35
2018-07-07T05:08:22.864Z,3.80
2018-07-07T05:10:50.868Z,3.60
2018-07-07T05:13:18.896Z,3.50
2018-07-07T05:15:46.921Z,3.20
2018-07-07T05:18:14.940Z,3.75
2018-07-07T05:20:42.965Z,3.40
2018-07-07T05:23:10.976Z,3.67
2018-07-07T05:25:38.994Z,3.58
2018-07-07T05:28:07.020Z,3.65
2018-07-07T05:30:35.029Z,2.90
2018-07-07T05:33:03.042Z,3.40
2018-07-07T05:35:31.063Z,3.35
2018-07-07T05:40:49.741Z,3.20
2018-07-07T05:43:17.757Z,3.20
2018-07-07T05:45:45.765Z,3.20
2018-07-07T05:48:13.592Z,3.40
2018-07-07T05:50:41.615Z,3.70
2018-07-07T05:53:09.640Z,3.12
2018-07-07T05:55:37.673Z,2.80
2018-07-07T05:58:05.730Z,3.33
2018-07-07T06:00:33.769Z,3.22
2018-07-07T06:03:01.808Z,3.43
2018-07-07T06:05:29.832Z,3.10
2018-07-07T06:07:57.899Z,3.00
2018-07-07T06:10:25.924Z,2.83
2018-07-07T06:12:53.987Z,2.77
2018-07-07T06:15:21.999Z,2.90
2018-07-07T06:17:50.044Z,3.50
2018-07-07T06:20:18.084Z,3.10
2018-07-07T06:22:46.112Z,3.02
2018-07-07T06:25:14.145Z,3.00
2018-07-07T06:27:42.176Z,2.80
2018-07-07T06:30:10.212Z,2.92
2018-07-07T06:32:38.039Z,2.80
2018-07-07T06:35:06.128Z,3.40
2018-07-07T06:37:34.172Z,3.50
2018-07-07T06:40:02.237Z,3.30
2018-07-07T06:42:30.313Z,2.80
2018-07-07T06:44:58.323Z,3.10
2018-07-07T06:47:26.167Z,3.83
2018-07-07T06:49:54.208Z,3.55
2018-07-07T06:52:22.470Z,2.80
2018-07-07T06:54:50.535Z,2.95
2018-07-07T06:57:18.560Z,3.20
2018-07-07T06:59:46.631Z,3.00
2018-07-07T07:02:14.652Z,3.12
2018-07-07T07:04:42.689Z,2.95
2018-07-07T07:07:10.714Z,3.20
2018-07-07T07:09:38.734Z,3.27
2018-07-07T07:12:06.771Z,3.00
2018-07-07T07:14:34.776Z,3.00
2018-07-07T07:17:02.817Z,2.60
2018-07-07T07:19:30.841Z,2.80
2018-07-07T07:21:58.872Z,2.93
2018-07-07T07:24:26.897Z,2.42
2018-07-07T07:26:54.937Z,2.85
2018-07-07T07:29:22.956Z,3.00
2018-07-07T07:31:50.974Z,2.70
2018-07-07T07:34:18.996Z,2.40
2018-07-07T07:36:48.111Z,2.20
2018-07-07T07:39:16.440Z,2.60
2018-07-07T07:41:44.727Z,2.50
2018-07-07T07:44:12.759Z,2.50
2018-07-07T07:46:40.776Z,2.72
2018-07-07T07:49:09.560Z,2.57
2018-07-07T07:51:37.579Z,2.03
2018-07-07T07:54:05.592Z,2.50
2018-07-07T07:56:33.620Z,2.20
2018-07-07T07:59:01.799Z,2.20
2018-07-07T08:01:29.720Z,1.92
2018-07-07T08:03:57.963Z,2.27
2018-07-07T08:06:25.996Z,2.17
2018-07-07T08:08:54.032Z,2.30
2018-07-07T08:11:22.065Z,2.40
2018-07-07T08:13:50.096Z,2.10
2018-07-07T08:16:18.227Z,2.30
2018-07-07T08:18:46.296Z,2.50
2018-07-07T08:21:14.369Z,2.60
2018-07-07T08:23:42.405Z,2.40
2018-07-07T08:26:10.824Z,2.30
2018-07-07T08:28:38.868Z,2.40
2018-07-07T08:31:07.276Z,1.95
2018-07-07T08:33:35.421Z,2.20
2018-07-07T08:36:03.451Z,2.45
2018-07-07T08:38:31.480Z,1.93
2018-07-07T08:40:59.509Z,2.12
2018-07-07T08:43:27.540Z,2.08
2018-07-07T08:45:55.580Z,2.17
2018-07-07T08:48:23.607Z,1.80
2018-07-07T08:50:51.644Z,1.90
2018-07-07T08:53:19.663Z,1.65
2018-07-07T08:55:47.700Z,2.00
2018-07-07T08:58:15.541Z,2.00
2018-07-07T09:00:43.632Z,2.35
2018-07-07T09:03:11.656Z,2.40
2018-07-07T09:05:39.719Z,1.80
2018-07-07T09:08:07.744Z,2.08
2018-07-07T09:10:35.768Z,2.12
2018-07-07T09:13:03.825Z,2.00
2018-07-07T09:15:31.867Z,2.30
2018-07-07T09:17:59.927Z,2.30
2018-07-07T09:20:27.941Z,2.20
2018-07-07T09:22:55.971Z,2.30
2018-07-07T09:25:24.023Z,2.10
2018-07-07T09:27:52.063Z,2.62
2018-07-07T09:30:20.083Z,2.65
2018-07-07T09:32:47.936Z,2.70
2018-07-07T09:35:15.958Z,2.30
2018-07-07T09:37:44.009Z,2.20
2018-07-07T09:40:12.028Z,2.08
2018-07-07T09:42:40.072Z,2.17
2018-07-07T09:45:08.100Z,2.10
2018-07-07T09:47:36.141Z,2.50
2018-07-07T09:50:04.530Z,2.58
2018-07-07T09:52:32.532Z,2.30
2018-07-07T09:55:00.557Z,2.35
2018-07-07T09:57:28.585Z,2.33
2018-07-07T09:59:56.600Z,2.40
2018-07-07T10:02:24.894Z,2.15
2018-07-07T10:04:52.901Z,2.25
2018-07-07T10:07:20.992Z,2.30
2018-07-07T10:09:48.984Z,2.13
2018-07-07T10:12:16.992Z,1.92
2018-07-07T10:14:45.018Z,1.82
2018-07-07T10:17:13.101Z,2.30
2018-07-07T10:19:41.125Z,1.90
2018-07-07T10:22:09.156Z,2.50
2018-07-07T10:24:37.189Z,2.08
2018-07-07T10:27:05.216Z,2.05
2018-07-07T10:29:33.252Z,2.50
2018-07-07T10:32:01.285Z,2.10
2018-07-07T10:34:29.334Z,2.80
2018-07-07T10:36:57.377Z,2.30
2018-07-07T10:39:25.400Z,2.40
2018-07-07T10:41:53.408Z,2.30
2018-07-07T10:44:21.437Z,2.20
2018-07-07T10:46:49.460Z,2.30
2018-07-07T10:49:17.288Z,2.35
2018-07-07T10:51:45.316Z,2.30
2018-07-07T10:54:13.352Z,2.47
2018-07-07T10:56:41.381Z,2.27
2018-07-07T10:59:09.407Z,2.50
2018-07-07T11:01:37.441Z,2.25
2018-07-07T11:04:05.497Z,2.40
2018-07-07T11:06:33.511Z,2.00
2018-07-07T11:09:01.544Z,2.10
2018-07-07T11:11:29.574Z,2.40
2018-07-07T11:13:57.601Z,2.22
2018-07-07T11:16:25.632Z,2.05
2018-07-07T11:18:53.696Z,2.12
2018-07-07T11:21:21.725Z,2.20
2018-07-07T11:23:49.752Z,1.90
2018-07-07T11:26:17.807Z,2.30
2018-07-07T11:28:45.815Z,2.35
2018-07-07T11:31:13.852Z,2.00
2018-07-07T11:33:41.936Z,2.50
2018-07-07T11:36:09.988Z,2.20
2018-07-07T11:38:38.014Z,2.70
2018-07-07T11:41:05.911Z,2.50
2018-07-07T11:43:33.960Z,2.33
2018-07-07T11:46:01.988Z,2.37
2018-07-07T11:48:30.171Z,2.40
2018-07-07T11:50:58.244Z,2.20
2018-07-07T11:53:26.280Z,2.30
2018-07-07T11:55:54.343Z,2.27
2018-07-07T11:58:22.364Z,2.30
2018-07-07T12:00:50.640Z,2.42
2018-07-07T12:03:18.669Z,2.20
2018-07-07T12:05:46.684Z,2.20
2018-07-07T12:08:14.542Z,2.40
2018-07-07T12:10:42.563Z,1.85
2018-07-07T12:13:10.580Z,2.30
2018-07-07T12:15:38.597Z,2.30
2018-07-07T12:18:06.649Z,2.12
2018-07-07T12:20:34.776Z,2.00
2018-07-07T12:23:02.797Z,2.40
2018-07-07T12:25:30.852Z,1.92
2018-07-07T12:27:58.856Z,2.20
2018-07-07T12:30:26.900Z,2.22
2018-07-07T12:32:54.952Z,2.60
2018-07-07T12:35:22.976Z,2.37
2018-07-07T12:37:50.995Z,2.30
2018-07-07T12:40:19.028Z,2.00
2018-07-07T12:42:47.051Z,2.00
2018-07-07T12:45:15.089Z,2.25
2018-07-07T12:47:43.100Z,2.00
2018-07-07T12:50:11.145Z,2.12
2018-07-07T12:52:38.966Z,2.20
2018-07-07T12:55:07.664Z,2.58
2018-07-07T12:57:36.135Z,2.20
2018-07-07T13:00:04.202Z,2.02
2018-07-07T13:02:32.209Z,2.10
2018-07-07T13:05:00.051Z,2.25
2018-07-07T13:07:28.129Z,2.12
2018-07-07T13:09:56.173Z,2.30
2018-07-07T13:12:24.195Z,2.42
2018-07-07T13:14:52.216Z,2.13
2018-07-07T13:17:20.245Z,2.50
2018-07-07T13:19:48.272Z,2.00
2018-07-07T13:22:16.296Z,2.37
2018-07-07T13:24:44.324Z,2.10
2018-07-07T13:27:12.369Z,2.00
2018-07-07T13:29:40.384Z,1.90
2018-07-07T13:32:09.385Z,1.90
2018-07-07T13:34:37.708Z,2.30
2018-07-07T13:37:05.878Z,2.30
2018-07-07T13:39:33.916Z,2.20
2018-07-07T13:42:01.933Z,2.25
2018-07-07T13:44:29.965Z,2.17
2018-07-07T13:46:57.986Z,2.10
2018-07-07T13:49:26.033Z,2.25
2018-07-07T13:51:54.248Z,2.10
2018-07-07T13:54:22.272Z,2.00
2018-07-07T13:56:50.285Z,2.50
2018-07-07T13:59:18.680Z,2.10
2018-07-07T14:01:46.727Z,1.90
2018-07-07T14:04:14.592Z,2.02
2018-07-07T14:06:42.448Z,2.00
2018-07-07T14:09:10.824Z,2.40
2018-07-07T14:11:38.979Z,2.30
2018-07-07T14:14:07.163Z,1.80
2018-07-07T14:16:35.446Z,2.00
2018-07-07T14:19:03.576Z,1.93
2018-07-07T14:21:31.785Z,2.20
2018-07-07T14:23:59.916Z,2.00
2018-07-07T14:26:27.953Z,2.10
2018-07-07T14:28:56.000Z,2.10
2018-07-07T14:31:24.100Z,1.80
2018-07-07T14:33:52.157Z,1.92
2018-07-07T14:36:20.239Z,2.10
2018-07-07T14:38:48.308Z,2.00
2018-07-07T14:41:18.588Z,1.90
2018-07-07T14:43:48.310Z,2.30
2018-07-07T14:46:16.332Z,1.82
2018-07-07T14:48:44.361Z,2.55
2018-07-07T14:51:12.400Z,2.55
2018-07-07T14:53:54.008Z,2.10
2018-07-07T14:56:34.460Z,1.95
2018-07-07T14:59:02.525Z,2.70
2018-07-07T15:01:30.918Z,2.52
2018-07-07T15:04:02.559Z,2.10
2018-07-07T15:06:30.871Z,2.20
2018-07-07T15:08:58.953Z,2.22
2018-07-07T15:11:27.002Z,2.30
2018-07-07T15:13:55.032Z,2.50
2018-07-07T15:16:23.192Z,2.12
2018-07-07T15:18:52.003Z,2.25
2018-07-07T15:21:20.089Z,2.40
2018-07-07T15:23:48.161Z,2.08
2018-07-07T15:26:16.201Z,1.92
2018-07-07T15:28:44.218Z,2.37
2018-07-07T15:31:12.265Z,1.90
2018-07-07T15:33:40.299Z,1.70
2018-07-07T15:36:08.342Z,1.95
2018-07-07T15:38:36.166Z,2.20
2018-07-07T15:41:04.228Z,2.20
2018-07-07T15:43:32.260Z,2.00
2018-07-07T15:46:00.344Z,2.33
2018-07-07T15:48:28.326Z,2.30
2018-07-07T15:50:56.378Z,2.22
2018-07-07T15:53:24.429Z,2.60
2018-07-07T15:55:52.484Z,1.90
2018-07-07T15:58:20.343Z,1.92
2018-07-07T16:00:48.584Z,1.92
2018-07-07T16:03:16.600Z,2.10
2018-07-07T16:05:44.642Z,2.07
2018-07-07T16:08:12.680Z,2.00
2018-07-07T16:10:40.720Z,2.12
2018-07-07T16:13:08.749Z,2.60
2018-07-07T16:15:36.772Z,2.70
2018-07-07T16:18:05.223Z,2.62
2018-07-07T16:20:33.269Z,2.62
2018-07-07T16:23:01.296Z,2.40
2018-07-07T16:25:29.339Z,2.80
2018-07-07T16:27:57.376Z,2.53
2018-07-07T16:30:25.414Z,2.00
2018-07-07T16:32:53.437Z,1.85
2018-07-07T16:35:21.473Z,1.90
2018-07-07T16:37:49.513Z,2.00
2018-07-07T16:40:17.553Z,2.10
2018-07-07T16:42:45.588Z,2.30
2018-07-07T16:45:13.632Z,1.80
2018-07-07T16:47:42.576Z,2.30
2018-07-07T16:50:11.101Z,2.12
2018-07-07T16:52:39.128Z,2.00
2018-07-07T16:55:16.657Z,2.58
2018-07-07T16:57:44.675Z,1.92
2018-07-07T17:00:13.089Z,2.33
2018-07-07T17:02:40.927Z,2.10
2018-07-07T17:05:08.940Z,2.35
2018-07-07T17:07:37.620Z,1.90
2018-07-07T17:10:05.960Z,2.10
2018-07-07T17:12:33.994Z,2.52
2018-07-07T17:15:02.040Z,2.20
2018-07-07T17:17:30.079Z,2.40
2018-07-07T17:19:58.110Z,2.60
2018-07-07T17:22:26.660Z,2.37
2018-07-07T17:24:55.033Z,2.42
2018-07-07T17:27:23.061Z,2.65
2018-07-07T17:29:51.103Z,2.20
2018-07-07T17:32:19.132Z,2.50
2018-07-07T17:34:46.948Z,2.53
2018-07-07T17:37:14.969Z,2.10
2018-07-07T17:39:43.044Z,2.12
2018-07-07T17:42:11.144Z,2.30
2018-07-07T17:44:39.111Z,2.30
2018-07-07T17:47:07.128Z,2.30
2018-07-07T17:49:35.198Z,2.27
2018-07-07T17:52:03.335Z,2.30
2018-07-07T17:54:31.379Z,2.50
2018-07-07T17:57:00.109Z,2.40
2018-07-07T17:59:28.527Z,2.30
2018-07-07T18:01:56.356Z,2.40
2018-07-07T18:04:24.388Z,2.87
2018-07-07T18:06:52.520Z,2.60
2018-07-07T18:09:20.356Z,2.52
2018-07-07T18:11:48.451Z,2.75
2018-07-07T18:14:16.448Z,3.00
2018-07-07T18:16:44.507Z,3.08
2018-07-07T18:19:12.598Z,2.50
2018-07-07T18:21:40.565Z,2.90
2018-07-07T18:24:08.599Z,2.70
2018-07-07T18:26:36.644Z,2.95
2018-07-07T18:29:04.876Z,2.70
2018-07-07T18:31:32.908Z,3.17
2018-07-07T18:34:00.945Z,3.30
2018-07-07T18:36:28.989Z,3.50
2018-07-07T18:38:57.036Z,3.17
2018-07-07T18:41:25.087Z,3.15
2018-07-07T18:43:53.131Z,2.90
2018-07-07T18:46:21.173Z,3.20
2018-07-07T18:48:49.220Z,3.00
2018-07-07T18:51:17.253Z,3.00
2018-07-07T18:53:45.297Z,3.42
2018-07-07T18:56:13.328Z,3.00
2018-07-07T18:58:42.272Z,2.97
2018-07-07T19:01:10.281Z,3.02
2018-07-07T19:03:38.125Z,2.95
2018-07-07T19:06:06.185Z,3.30
2018-07-07T19:08:34.221Z,2.90
2018-07-07T19:11:02.250Z,2.80
2018-07-07T19:13:30.279Z,2.90
2018-07-07T19:15:58.331Z,2.95
2018-07-07T19:18:26.352Z,2.80
2018-07-07T19:20:59.820Z,3.10
2018-07-07T19:23:33.232Z,2.98
2018-07-07T19:26:06.702Z,3.00
2018-07-07T19:28:34.695Z,3.25
2018-07-07T19:31:02.710Z,3.45
2018-07-07T19:33:36.160Z,3.55
2018-07-07T19:36:09.585Z,2.90
2018-07-07T19:38:37.429Z,3.50
2018-07-07T19:41:05.493Z,3.00
2018-07-07T19:43:33.528Z,3.90
2018-07-07T19:46:01.561Z,3.90
2018-07-07T19:48:29.897Z,3.42
2018-07-07T19:50:57.916Z,3.70
2018-07-07T19:53:25.956Z,3.43
2018-07-07T19:55:53.992Z,3.87
2018-07-07T19:58:22.397Z,3.90
2018-07-07T20:00:50.542Z,3.40
2018-07-07T20:03:18.561Z,3.90
2018-07-07T20:05:46.622Z,3.87
2018-07-07T20:08:14.667Z,3.17
2018-07-07T20:10:42.700Z,3.77
2018-07-07T20:13:10.727Z,4.10
2018-07-07T20:15:50.240Z,4.00
2018-07-07T20:18:18.248Z,4.10
2018-07-07T20:22:07.221Z,3.70
2018-07-07T20:24:38.341Z,3.50
2018-07-07T20:27:12.508Z,3.70
2018-07-07T20:29:40.524Z,3.90
2018-07-07T20:33:11.928Z,3.90
2018-07-07T20:35:39.945Z,4.00
2018-07-07T20:38:07.996Z,3.70
2018-07-07T20:40:36.024Z,3.98
2018-07-07T20:43:03.850Z,4.83
2018-07-07T20:45:31.913Z,3.80
2018-07-07T20:47:59.928Z,3.65
2018-07-07T20:50:27.991Z,3.50
2018-07-07T20:52:56.020Z,3.22
2018-07-07T20:55:24.063Z,3.53
2018-07-07T20:57:52.093Z,3.75
2018-07-07T21:00:20.171Z,3.72
2018-07-07T21:02:48.208Z,4.08
2018-07-07T21:05:16.271Z,4.00
2018-07-07T21:07:44.314Z,3.50
2018-07-07T21:10:12.374Z,4.20
2018-07-07T21:12:40.412Z,4.53
2018-07-07T21:15:08.460Z,3.37
2018-07-07T21:17:36.576Z,3.52
2018-07-07T21:20:04.940Z,3.50
2018-07-07T21:22:32.880Z,2.90
2018-07-07T21:25:00.984Z,4.08
2018-07-07T21:27:28.816Z,3.60
2018-07-07T21:29:56.892Z,3.95
2018-07-07T21:32:25.164Z,3.75
2018-07-07T21:34:53.193Z,3.70
2018-07-07T21:37:21.239Z,4.30
2018-07-07T21:39:49.061Z,3.83
2018-07-07T21:42:17.104Z,4.08
2018-07-07T21:44:45.158Z,3.90
2018-07-07T21:47:13.199Z,3.60
2018-07-07T21:49:41.227Z,3.35
2018-07-07T21:52:09.286Z,4.05
2018-07-07T21:54:37.356Z,3.80
2018-07-07T21:57:05.399Z,4.13
2018-07-07T21:59:33.501Z,4.35
2018-07-07T22:02:07.035Z,3.90
2018-07-07T22:04:40.523Z,3.70
2018-07-07T22:07:14.277Z,3.87
2018-07-07T22:09:43.013Z,3.67
2018-07-07T22:12:11.041Z,4.00
2018-07-07T22:14:39.070Z,3.70
2018-07-07T22:17:07.108Z,3.75
2018-07-07T22:19:35.136Z,4.00
2018-07-07T22:22:08.398Z,3.87
2018-07-07T22:24:36.761Z,3.80
2018-07-07T22:27:06.808Z,3.30
2018-07-07T22:29:34.839Z,3.75
2018-07-07T22:32:04.244Z,3.90
2018-07-07T22:34:33.643Z,4.33
2018-07-07T22:37:01.701Z,3.58
2018-07-07T22:39:33.689Z,4.15
2018-07-07T22:42:02.792Z,3.90
2018-07-07T22:44:31.264Z,3.50
2018-07-07T22:46:59.349Z,3.22
2018-07-07T22:49:28.029Z,3.90
2018-07-07T22:51:56.047Z,3.97
2018-07-07T22:54:24.140Z,3.90
2018-07-07T22:56:52.300Z,4.00
2018-07-07T22:59:20.344Z,3.50
2018-07-07T23:01:48.393Z,3.52
2018-07-07T23:04:16.474Z,3.80
2018-07-07T23:06:45.057Z,4.00
2018-07-07T23:09:14.029Z,3.40
2018-07-07T23:11:42.076Z,4.00
2018-07-07T23:14:10.110Z,3.37
2018-07-07T23:16:38.158Z,3.83
2018-07-07T23:19:07.448Z,4.10
2018-07-07T23:21:35.477Z,3.35
2018-07-07T23:24:04.133Z,3.60
2018-07-07T23:26:32.444Z,3.80
2018-07-07T23:29:01.345Z,3.72
2018-07-07T23:31:29.397Z,3.37
2018-07-07T23:33:57.464Z,4.10
2018-07-07T23:36:25.492Z,3.97
2018-07-07T23:38:53.315Z,3.70
2018-07-07T23:41:21.340Z,4.00
2018-07-07T23:43:49.456Z,3.40
2018-07-07T23:46:17.240Z,3.50
2018-07-07T23:48:45.289Z,3.60
2018-07-07T23:51:13.322Z,4.10
2018-07-07T23:53:43.950Z,3.85
2018-07-07T23:56:11.995Z,3.80
2018-07-07T23:58:39.828Z,3.80
